Time;durP1;ratioP1;P1;durP2;ratioP2;P2;SDS_P1;SDS_P2;PMS_P1;PMS_P2;Temp;Humidity;BMP_temperature;BMP_pressure;BME280_temperature;BME280_humidity;BME280_pressure;Samples;Min_cycle;Max_cycle;Signal;HPM_P1;HPM_P2
2022/07/16 00:01:22;;;;;;;12.45;5.03;;;;;;;18.27;99.95;97382.97;5109296;28;20019;-80
2022/07/16 00:03:56;;;;;;;9.70;5.20;;;;;;;18.27;100.00;97403.81;5112020;28;20032;-81
2022/07/16 00:06:23;;;;;;;9.90;5.40;;;;;;;18.17;100.00;97384.88;5096071;28;20040;-81
2022/07/16 00:08:49;;;;;;;8.85;5.32;;;;;;;18.20;100.00;97392.72;5095816;28;20483;-80
2022/07/16 00:11:15;;;;;;;9.57;5.18;;;;;;;18.21;100.00;97394.41;5095828;28;20065;-81
2022/07/16 00:13:41;;;;;;;8.63;5.00;;;;;;;18.27;100.00;97393.81;5087267;28;20055;-80
2022/07/16 00:16:08;;;;;;;9.57;5.18;;;;;;;18.34;100.00;97403.06;5092005;28;20023;-79
2022/07/16 00:21:19;;;;;;;12.90;5.82;;;;;;;18.35;100.00;97412.06;5108271;28;20599;-80
2022/07/16 00:23:44;;;;;;;11.68;5.47;;;;;;;18.34;100.00;97411.19;5130694;27;20020;-81
2022/07/16 00:26:10;;;;;;;12.85;5.78;;;;;;;18.37;100.00;97416.31;5093330;28;20078;-81
2022/07/16 00:28:35;;;;;;;14.70;5.30;;;;;;;18.34;100.00;97408.50;5110694;27;20019;-80
2022/07/16 00:31:01;;;;;;;9.57;5.68;;;;;;;18.20;100.00;97402.69;5095450;28;20080;-80
2022/07/16 00:33:26;;;;;;;12.80;5.97;;;;;;;18.13;100.00;97404.25;5112387;28;20039;-80
2022/07/16 00:35:52;;;;;;;10.63;5.90;;;;;;;18.11;100.00;97407.13;5113915;27;20034;-79
2022/07/16 00:38:17;;;;;;;15.02;6.03;;;;;;;18.10;100.00;97409.97;5102243;28;20027;-80
2022/07/16 00:40:43;;;;;;;9.43;5.20;;;;;;;18.07;100.00;97412.97;5104177;27;20031;-80
2022/07/16 00:43:14;;;;;;;11.52;4.95;;;;;;;17.99;100.00;97412.84;5130954;27;20426;-80
2022/07/16 00:45:40;;;;;;;11.35;4.50;;;;;;;17.90;100.00;97417.28;5114442;27;20446;-80
2022/07/16 00:48:06;;;;;;;8.07;4.53;;;;;;;17.80;100.00;97408.28;5112141;28;20019;-80
2022/07/16 00:50:34;;;;;;;7.20;5.32;;;;;;;17.81;100.00;97410.00;5110402;27;20018;-80
2022/07/16 00:53:00;;;;;;;16.40;5.50;;;;;;;17.67;100.00;97411.28;5113577;27;20043;-79
2022/07/16 00:55:26;;;;;;;8.30;5.10;;;;;;;17.62;100.00;97407.31;5112012;28;20448;-79
2022/07/16 00:57:51;;;;;;;11.20;5.65;;;;;;;17.74;100.00;97406.16;5094625;28;20035;-80
2022/07/16 01:00:17;;;;;;;12.48;6.32;;;;;;;17.72;100.00;97409.00;5117802;27;20438;-80
2022/07/16 01:02:43;;;;;;;10.13;6.32;;;;;;;17.78;100.00;97416.53;5115301;27;20104;-79
2022/07/16 01:05:08;;;;;;;10.18;5.63;;;;;;;17.76;100.00;97415.84;5110622;28;20030;-79
2022/07/16 01:07:35;;;;;;;11.20;6.50;;;;;;;17.72;100.00;97414.41;5094858;28;20114;-80
2022/07/16 01:10:05;;;;;;;21.30;7.10;;;;;;;17.64;100.00;97408.84;5094984;27;20028;-80
2022/07/16 01:12:31;;;;;;;15.95;6.78;;;;;;;17.63;100.00;97406.28;5119180;27;20027;-80
2022/07/16 01:14:57;;;;;;;13.75;7.25;;;;;;;17.60;100.00;97409.28;5119338;27;20496;-80
2022/07/16 01:17:23;;;;;;;17.02;7.15;;;;;;;17.59;100.00;97405.75;5100306;28;20034;-80
2022/07/16 01:19:49;;;;;;;13.25;7.20;;;;;;;17.60;100.00;97410.13;5112060;28;20019;-80
2022/07/16 01:22:19;;;;;;;15.52;7.55;;;;;;;17.68;100.00;97417.56;5131145;27;20134;-80
2022/07/16 01:24:45;;;;;;;15.02;7.25;;;;;;;17.62;100.00;97413.56;5131727;27;20025;-79
2022/07/16 01:27:10;;;;;;;13.50;6.85;;;;;;;17.55;100.00;97411.56;5123464;27;20027;-80
2022/07/16 01:29:36;;;;;;;15.32;6.57;;;;;;;17.45;100.00;97416.06;5114767;27;20027;-80
2022/07/16 01:32:01;;;;;;;10.65;6.85;;;;;;;17.39;100.00;97420.19;5114614;27;20027;-78
2022/07/16 01:34:27;;;;;;;15.45;8.20;;;;;;;17.31;100.00;97422.75;5100188;28;20023;-79
2022/07/16 01:36:56;;;;;;;14.45;6.93;;;;;;;17.28;100.00;97425.72;5100762;27;20114;-80
2022/07/16 01:39:23;;;;;;;13.93;7.22;;;;;;;17.25;100.00;97421.47;5103438;28;20039;-79
2022/07/16 01:41:54;;;;;;;14.82;7.47;;;;;;;17.19;100.00;97421.16;5093717;28;20570;-79
2022/07/16 01:44:20;;;;;;;14.88;6.88;;;;;;;17.19;100.00;97415.75;5125413;27;20483;-80
2022/07/16 01:46:46;;;;;;;10.65;6.30;;;;;;;17.17;100.00;97423.13;5117284;27;20466;-79
2022/07/16 01:49:12;;;;;;;12.30;6.32;;;;;;;17.16;100.00;97418.72;5114046;27;20086;-79
2022/07/16 01:51:37;;;;;;;10.05;5.70;;;;;;;17.19;100.00;97431.97;5131386;27;20482;-79
2022/07/16 01:54:03;;;;;;;12.00;5.88;;;;;;;17.19;100.00;97427.44;5130916;27;20502;-79
2022/07/16 01:56:28;;;;;;;11.68;5.85;;;;;;;17.23;100.00;97422.56;5109707;28;20046;-79
2022/07/16 01:58:54;;;;;;;8.80;5.68;;;;;;;17.25;100.00;97431.41;5110197;27;20046;-80
2022/07/16 02:01:19;;;;;;;11.80;6.35;;;;;;;17.25;100.00;97434.97;5131267;27;20019;-79
2022/07/16 02:03:45;;;;;;;14.57;7.53;;;;;;;17.25;100.00;97436.81;5123520;27;20118;-80
2022/07/16 02:06:10;;;;;;;15.75;8.02;;;;;;;17.30;100.00;97435.41;5093416;28;20100;-79
2022/07/16 02:08:36;;;;;;;17.88;8.32;;;;;;;17.25;100.00;97436.81;5115578;27;20049;-80
2022/07/16 02:11:01;;;;;;;20.77;9.50;;;;;;;17.24;100.00;97446.78;5098366;28;20027;-78
2022/07/16 02:13:27;;;;;;;15.98;9.70;;;;;;;17.28;100.00;97433.84;5121784;27;20027;-80
2022/07/16 02:15:52;;;;;;;18.55;8.90;;;;;;;17.31;100.00;97441.69;5095007;28;20020;-81
2022/07/16 02:18:18;;;;;;;12.05;7.28;;;;;;;17.29;100.00;97435.53;5112503;27;20141;-79
2022/07/16 02:20:44;;;;;;;14.60;6.82;;;;;;;17.30;100.00;97437.25;5130986;27;20035;-79
2022/07/16 02:23:09;;;;;;;11.35;6.15;;;;;;;17.25;100.00;97437.69;5130088;27;20553;-79
2022/07/16 02:25:35;;;;;;;14.23;6.13;;;;;;;17.32;100.00;97435.25;5125365;27;20107;-79
2022/07/16 02:28:06;;;;;;;10.73;5.90;;;;;;;17.26;100.00;97427.69;5101153;27;20034;-80
2022/07/16 02:30:33;;;;;;;11.07;5.78;;;;;;;17.19;100.00;97445.50;5114491;27;20410;-78
2022/07/16 02:32:58;;;;;;;10.07;5.30;;;;;;;17.08;100.00;97440.16;5123218;27;20111;-78
2022/07/16 02:35:24;;;;;;;11.45;5.97;;;;;;;16.95;100.00;97436.88;5101494;28;20118;-79
2022/07/16 02:37:50;;;;;;;8.95;5.00;;;;;;;16.88;100.00;97433.00;5123392;27;20027;-79
2022/07/16 02:40:16;;;;;;;11.25;5.93;;;;;;;16.88;100.00;97436.56;5113511;28;20015;-79
2022/07/16 02:42:42;;;;;;;13.48;7.57;;;;;;;16.78;100.00;97438.38;5106408;28;20072;-78
2022/07/16 02:45:08;;;;;;;17.90;7.80;;;;;;;16.70;100.00;97441.75;5113489;28;20034;-79
2022/07/16 02:47:34;;;;;;;20.77;8.45;;;;;;;16.69;100.00;97456.25;5127162;27;20479;-79
2022/07/16 02:50:00;;;;;;;12.68;6.68;;;;;;;16.65;100.00;97446.69;5108717;28;20027;-79
2022/07/16 02:52:26;;;;;;;10.23;5.78;;;;;;;16.62;100.00;97449.66;5120897;28;20039;-80
2022/07/16 02:54:51;;;;;;;15.45;6.55;;;;;;;16.62;100.00;97460.47;5098843;28;20469;-79
2022/07/16 02:57:17;;;;;;;9.82;5.72;;;;;;;16.53;100.00;97450.44;5130255;28;20038;-78
2022/07/16 02:59:42;;;;;;;9.63;5.95;;;;;;;16.56;100.00;97447.50;5130400;28;20027;-79
2022/07/16 03:02:08;;;;;;;12.52;5.22;;;;;;;16.65;100.00;97452.09;5123451;28;20072;-79
2022/07/16 03:04:33;;;;;;;8.77;5.05;;;;;;;16.74;100.00;97464.78;5113024;28;20031;-79
2022/07/16 03:06:59;;;;;;;13.15;5.80;;;;;;;16.73;100.00;97454.97;5103849;28;20023;-79
2022/07/16 03:09:24;;;;;;;15.68;5.47;;;;;;;16.75;100.00;97444.03;5112685;28;20032;-80
2022/07/16 03:11:50;;;;;;;11.43;5.30;;;;;;;16.80;100.00;97455.28;5114897;28;20035;-79
2022/07/16 03:14:15;;;;;;;9.95;5.78;;;;;;;16.80;100.00;97445.34;5112963;28;20031;-78
2022/07/16 03:16:41;;;;;;;13.43;5.65;;;;;;;16.80;100.00;97453.44;5112076;28;20183;-77
2022/07/16 03:19:07;;;;;;;9.80;5.72;;;;;;;16.83;100.00;97452.31;5098473;28;20027;-79
2022/07/16 03:21:32;;;;;;;12.55;5.47;;;;;;;16.82;100.00;97458.72;5103186;28;20034;-79
2022/07/16 03:23:58;;;;;;;11.88;5.80;;;;;;;16.89;100.00;97457.16;5127268;28;20031;-80
2022/07/16 03:26:23;;;;;;;15.70;7.20;;;;;;;16.91;100.00;97460.63;5096112;28;20043;-80
2022/07/16 03:28:49;;;;;;;29.30;14.27;;;;;;;16.95;100.00;97455.81;5103009;28;20118;-80
2022/07/16 03:31:17;;;;;;;51.40;23.48;;;;;;;16.96;100.00;97457.50;5126580;27;20031;-80
2022/07/16 03:33:43;;;;;;;62.58;29.05;;;;;;;16.96;100.00;97460.19;5143495;27;20114;-80
2022/07/16 03:36:09;;;;;;;70.13;32.78;;;;;;;17.04;100.00;97460.38;5095635;28;20032;-80
2022/07/16 03:41:18;;;;;;;92.30;37.97;;;;;;;17.16;100.00;97465.56;5137299;27;20050;-80
2022/07/16 03:43:44;;;;;;;93.88;42.55;;;;;;;17.17;100.00;97460.97;5119689;27;20026;-81
2022/07/16 03:46:13;;;;;;;52.30;22.10;;;;;;;17.19;100.00;97464.41;5139547;27;20030;-80
2022/07/16 03:48:39;;;;;;;40.20;16.75;;;;;;;17.28;100.00;97459.03;5130640;27;20465;-80
2022/07/16 03:51:06;;;;;;;40.05;17.52;;;;;;;17.27;100.00;97467.28;5114214;27;20481;-80
2022/07/16 03:53:35;;;;;;;35.33;17.27;;;;;;;17.24;100.00;97470.25;5099696;27;20031;-80
2022/07/16 03:56:01;;;;;;;38.10;16.50;;;;;;;17.32;100.00;97465.00;5116667;27;20061;-80
2022/07/16 03:58:26;;;;;;;32.78;13.05;;;;;;;17.37;100.00;97475.41;5131684;27;20026;-80
2022/07/16 04:00:52;;;;;;;36.58;16.98;;;;;;;17.43;100.00;97477.56;5137490;27;20398;-79
2022/07/16 04:03:18;;;;;;;40.10;18.65;;;;;;;17.45;100.00;97471.00;5119658;27;20054;-78
2022/07/16 04:05:44;;;;;;;44.45;21.45;;;;;;;17.56;100.00;97479.06;5121817;27;20115;-82
2022/07/16 04:08:09;;;;;;;72.85;32.05;;;;;;;17.56;100.00;97481.75;5121338;27;20109;-85
2022/07/16 04:10:35;;;;;;;103.32;45.72;;;;;;;17.68;100.00;97483.34;5128958;27;20050;-86
2022/07/16 04:13:01;;;;;;;144.70;64.60;;;;;;;17.74;100.00;97487.31;5120682;27;20114;-88
2022/07/16 04:15:26;;;;;;;162.05;72.10;;;;;;;17.73;100.00;97475.66;5114650;27;20478;-87
2022/07/16 04:17:52;;;;;;;133.23;59.60;;;;;;;17.75;100.00;97489.88;5115853;27;20422;-87
2022/07/16 04:20:18;;;;;;;105.03;50.47;;;;;;;17.66;100.00;97479.03;5106212;27;20027;-86
2022/07/16 04:22:43;;;;;;;103.60;46.10;;;;;;;17.66;100.00;97488.00;5130265;27;20410;-88
2022/07/16 04:25:09;;;;;;;103.78;46.88;;;;;;;17.76;100.00;97491.59;5134471;27;20030;-86
2022/07/16 04:27:34;;;;;;;106.45;49.47;;;;;;;17.72;100.00;97484.75;5117186;27;20039;-86
2022/07/16 04:30:00;;;;;;;103.10;47.88;;;;;;;17.84;100.00;97480.91;5131100;27;20075;-87
2022/07/16 04:32:25;;;;;;;105.95;48.65;;;;;;;17.86;100.00;97486.19;5100625;27;20110;-87
2022/07/16 04:34:51;;;;;;;105.53;49.42;;;;;;;17.99;100.00;97491.34;5153316;27;20030;-86
2022/07/16 04:37:17;;;;;;;109.63;46.67;;;;;;;18.16;100.00;97493.31;5125654;27;20023;-87
2022/07/16 04:39:42;;;;;;;93.22;45.47;;;;;;;18.19;100.00;97493.88;5108189;27;20544;-86
2022/07/16 04:42:08;;;;;;;105.00;47.38;;;;;;;18.30;100.00;97487.47;5131924;27;20502;-86
2022/07/16 04:44:34;;;;;;;102.30;46.38;;;;;;;18.46;100.00;97501.25;5108344;27;20080;-86
2022/07/16 04:46:59;;;;;;;107.35;46.15;;;;;;;18.60;100.00;97502.72;5119837;27;20027;-85
2022/07/16 04:49:25;;;;;;;98.90;46.10;;;;;;;18.70;100.00;97498.97;5107039;27;20035;-86
2022/07/16 04:51:50;;;;;;;125.93;50.13;;;;;;;18.76;99.13;97495.69;5116543;27;20022;-86
2022/07/16 04:54:16;;;;;;;97.97;46.25;;;;;;;18.70;99.84;97498.13;5122140;27;20031;-87
2022/07/16 04:56:41;;;;;;;89.03;40.67;;;;;;;18.71;99.03;97503.38;5118865;27;20405;-87
2022/07/16 04:59:07;;;;;;;80.70;41.28;;;;;;;18.94;98.64;97495.78;5102683;27;20169;-87
2022/07/16 05:01:32;;;;;;;87.88;38.65;;;;;;;19.39;96.05;97507.59;5130655;27;20035;-88
2022/07/16 05:03:58;;;;;;;77.50;37.47;;;;;;;19.83;93.98;97511.34;5106883;27;20534;-86
2022/07/16 05:06:24;;;;;;;77.55;35.80;;;;;;;21.16;85.81;97502.13;5120673;27;20029;-86
2022/07/16 05:08:49;;;;;;;81.20;35.83;;;;;;;23.14;75.07;97492.91;5113688;27;20111;-86
2022/07/16 05:11:15;;;;;;;79.13;35.25;;;;;;;24.37;66.65;97486.72;5106208;27;20030;-85
2022/07/16 05:13:40;;;;;;;73.13;33.00;;;;;;;24.45;65.57;97490.25;5113445;27;20064;-86
2022/07/16 05:16:06;;;;;;;71.65;33.45;;;;;;;24.60;64.73;97484.84;5108935;27;20038;-87
2022/07/16 05:18:32;;;;;;;60.10;31.77;;;;;;;25.04;63.36;97484.97;5099790;27;20031;-87
2022/07/16 05:20:57;;;;;;;62.35;33.40;;;;;;;25.47;61.84;97488.75;5099857;27;20506;-86
2022/07/16 05:23:23;;;;;;;62.40;30.58;;;;;;;25.19;61.71;97494.03;5106320;27;20068;-86
2022/07/16 05:25:48;;;;;;;58.45;27.60;;;;;;;25.07;62.03;97490.91;5133622;27;20402;-87
2022/07/16 05:28:14;;;;;;;42.75;23.35;;;;;;;26.20;59.56;97488.69;5112020;27;20586;-86
2022/07/16 05:30:39;;;;;;;41.33;21.20;;;;;;;27.71;54.33;97489.97;5118708;27;20022;-86
2022/07/16 05:33:05;;;;;;;45.97;21.83;;;;;;;28.18;51.74;97475.38;5110782;27;20022;-87
2022/07/16 05:35:31;;;;;;;26.55;16.63;;;;;;;29.06;49.43;97486.09;5115983;27;20031;-86
2022/07/16 05:37:56;;;;;;;40.55;20.08;;;;;;;30.08;47.57;97480.81;5114847;27;20505;-86
2022/07/16 05:40:22;;;;;;;44.05;22.50;;;;;;;30.91;45.51;97473.31;5133597;27;20484;-87
2022/07/16 05:42:47;;;;;;;38.70;18.52;;;;;;;32.01;42.44;97464.13;5107012;27;20043;-87
2022/07/16 05:45:13;;;;;;;47.35;21.30;;;;;;;31.71;42.04;97472.38;5115646;27;20027;-85
2022/07/16 05:47:38;;;;;;;29.67;16.63;;;;;;;32.06;40.83;97461.53;5137159;27;20034;-84
2022/07/16 05:50:05;;;;;;;36.05;17.42;;;;;;;33.14;39.10;97470.59;5111807;27;20561;-87
2022/07/16 05:52:31;;;;;;;29.33;15.38;;;;;;;32.52;39.13;97471.97;5118891;27;20026;-87
2022/07/16 05:54:56;;;;;;;33.63;16.58;;;;;;;32.35;39.63;97480.09;5120749;27;20031;-87
2022/07/16 05:57:22;;;;;;;29.42;14.05;;;;;;;33.04;38.17;97467.56;5149571;27;20117;-87
2022/07/16 05:59:48;;;;;;;21.35;13.10;;;;;;;34.04;36.68;97457.16;5104681;27;20034;-87
2022/07/16 06:02:13;;;;;;;38.08;18.90;;;;;;;33.43;36.92;97469.66;5108295;27;20034;-86
2022/07/16 06:04:39;;;;;;;26.38;14.88;;;;;;;32.54;38.00;97475.34;5145469;27;20474;-86
2022/07/16 06:07:04;;;;;;;33.20;18.30;;;;;;;32.61;38.24;97478.88;5136217;27;20031;-85
2022/07/16 06:09:30;;;;;;;22.25;12.43;;;;;;;32.84;37.33;97480.88;5116239;27;20030;-86
2022/07/16 06:11:55;;;;;;;27.35;13.95;;;;;;;34.06;35.96;97478.03;5105643;27;20027;-86
2022/07/16 06:14:21;;;;;;;18.77;11.48;;;;;;;35.29;34.16;97464.31;5114296;27;20386;-86
2022/07/16 06:16:47;;;;;;;40.42;21.80;;;;;;;36.29;32.86;97460.50;5105473;27;20038;-85
2022/07/16 06:19:13;;;;;;;25.60;14.00;;;;;;;36.15;32.47;97457.25;5139393;27;20451;-86
2022/07/16 06:21:39;;;;;;;22.00;12.77;;;;;;;37.42;30.99;97451.03;5097970;28;20027;-86
2022/07/16 06:24:05;;;;;;;21.50;13.57;;;;;;;38.06;29.79;97462.09;5112273;27;20034;-87
2022/07/16 06:26:30;;;;;;;20.77;12.65;;;;;;;36.47;31.75;97437.84;5110963;27;20030;-87
2022/07/16 06:28:59;;;;;;;29.33;12.77;;;;;;;36.24;31.79;97438.97;5118764;27;20026;-87
2022/07/16 06:31:24;;;;;;;21.60;12.02;;;;;;;35.11;33.08;97419.22;5127686;27;20525;-87
2022/07/16 06:33:56;;;;;;;17.77;11.30;;;;;;;34.66;33.79;97406.22;5101130;27;20023;-87
2022/07/16 06:36:21;;;;;;;23.63;11.20;;;;;;;34.77;33.76;97446.16;5108628;27;20083;-86
2022/07/16 06:38:47;;;;;;;30.17;11.25;;;;;;;35.39;33.73;97460.84;5117866;27;20113;-87
2022/07/16 06:41:12;;;;;;;29.73;14.98;;;;;;;35.77;32.74;97447.00;5100215;27;20026;-88
2022/07/16 06:43:38;;;;;;;25.27;11.18;;;;;;;36.92;31.67;97460.63;5097619;28;20035;-87
2022/07/16 06:46:04;;;;;;;15.00;7.63;;;;;;;37.30;30.12;97437.28;5096727;27;20149;-87
2022/07/16 06:48:29;;;;;;;13.40;7.93;;;;;;;38.14;29.56;97436.41;5097458;28;20127;-87
2022/07/16 06:50:55;;;;;;;23.08;10.10;;;;;;;37.87;30.31;97433.75;5114744;28;20027;-88
2022/07/16 06:53:20;;;;;;;24.60;9.93;;;;;;;36.13;32.32;97439.13;5097460;28;20023;-87
2022/07/16 06:55:46;;;;;;;19.70;10.63;;;;;;;35.28;33.20;97439.53;5098334;28;20029;-87
2022/07/16 06:58:11;;;;;;;16.60;9.50;;;;;;;35.42;32.74;97442.78;5097689;28;20022;-87
2022/07/16 07:01:04;;;;;;;;;;;;;;;;;;;;;
2022/07/16 07:03:34;;;;;;;18.25;9.93;;;;;;;37.02;31.24;97440.38;5117499;28;20025;-86
2022/07/16 07:06:10;;;;;;;19.80;9.45;;;;;;;37.73;30.44;97419.44;5115753;28;20027;-86
2022/07/16 07:09:08;;;;;;;37.63;19.70;;;;;;;38.58;29.06;97406.94;5097889;28;20118;-86
2022/07/16 07:11:34;;;;;;;19.63;10.45;;;;;;;39.15;28.60;97439.47;5100603;27;20035;-85
2022/07/16 07:14:00;;;;;;;12.45;7.40;;;;;;;38.03;28.81;97410.38;5101533;27;20567;-84
2022/07/16 07:16:30;;;;;;;8.70;5.93;;;;;;;37.97;29.03;97417.91;5100947;27;20051;-84
2022/07/16 07:19:08;;;;;;;12.90;7.63;;;;;;;39.26;27.58;97401.97;5101332;27;20023;-85
2022/07/16 07:21:55;;;;;;;12.55;7.45;;;;;;;40.82;26.41;97409.00;5101875;27;20042;-84
2022/07/16 07:24:20;;;;;;;18.23;8.60;;;;;;;41.26;26.28;97437.00;5101251;27;20034;-85
2022/07/16 07:26:46;;;;;;;15.50;6.97;;;;;;;40.58;26.26;97446.19;5101564;27;20426;-86
2022/07/16 07:33:03;;;;;;;20.15;15.15;;;;;;;38.17;28.73;97419.94;5051928;28;20059;-84
2022/07/16 07:35:29;;;;;;;12.05;7.10;;;;;;;39.30;27.93;97440.34;5045176;28;20039;-84
2022/07/16 07:37:58;;;;;;;14.07;8.77;;;;;;;39.57;27.85;97423.22;5105542;27;20125;-84
2022/07/16 07:40:24;;;;;;;14.15;8.27;;;;;;;39.23;28.42;97453.78;5101281;27;20026;-84
2022/07/16 07:42:50;;;;;;;32.50;8.73;;;;;;;39.51;28.58;97466.38;5100517;27;20047;-85
2022/07/16 07:45:21;;;;;;;16.80;9.30;;;;;;;39.05;28.45;97471.09;5100773;27;20443;-85
2022/07/16 07:48:09;;;;;;;;;;;;;;;37.08;30.25;97469.19;5100574;27;20031;-85
2022/07/16 07:50:35;;;;;;;21.67;8.90;;;;;;;38.17;29.26;97438.66;5117463;27;19922;-85
2022/07/16 07:53:01;;;;;;;17.15;7.88;;;;;;;38.77;28.38;97455.66;5100745;27;20030;-85
2022/07/16 07:55:27;;;;;;;21.33;7.82;;;;;;;40.15;27.38;97457.31;5100398;27;20483;-85
2022/07/16 07:57:53;;;;;;;15.07;7.88;;;;;;;41.34;26.13;97450.44;5099962;27;20027;-85
2022/07/16 08:00:19;;;;;;;13.88;7.40;;;;;;;41.48;25.55;97457.06;5117159;27;20497;-85
2022/07/16 08:02:47;;;;;;;10.52;7.10;;;;;;;40.75;26.41;97448.63;5100627;27;20038;-85
2022/07/16 08:05:13;;;;;;;13.38;6.95;;;;;;;42.50;24.79;97432.31;5099913;27;20034;-85
2022/07/16 08:07:39;;;;;;;15.68;8.32;;;;;;;43.45;24.25;97463.88;5100251;27;20103;-84
2022/07/16 08:10:06;;;;;;;18.45;6.93;;;;;;;42.98;25.07;97459.25;5099860;27;20122;-86
2022/07/16 08:12:31;;;;;;;10.25;6.88;;;;;;;43.30;24.74;97455.66;5109455;27;20478;-84
2022/07/16 08:15:00;;;;;;;19.10;6.72;;;;;;;44.07;24.20;97464.44;5099228;27;20024;-86
2022/07/16 08:17:26;;;;;;;12.07;5.57;;;;;;;43.52;24.47;97469.09;5100848;27;20027;-84
2022/07/16 08:19:51;;;;;;;14.95;6.35;;;;;;;43.95;23.68;97453.66;5099694;27;20607;-85
2022/07/16 08:22:19;;;;;;;12.20;4.95;;;;;;;44.39;23.47;97449.41;5099832;27;20023;-85
2022/07/16 08:27:32;;;;;;;5.45;3.55;;;;;;;43.50;23.46;97420.69;5120004;27;20039;-84
2022/07/16 08:29:57;;;;;;;12.38;4.38;;;;;;;42.29;25.37;97419.69;5099704;27;20126;-84
2022/07/16 08:32:23;;;;;;;10.38;4.97;;;;;;;42.56;24.99;97448.00;5099924;27;20035;-84
2022/07/16 08:34:54;;;;;;;17.70;4.38;;;;;;;41.53;25.50;97409.28;5099881;27;20098;-83
2022/07/16 08:37:33;;;;;;;;;;;;;;;42.04;25.64;97448.94;5095570;27;20502;-85
2022/07/16 08:39:59;;;;;;;7.95;4.45;;;;;;;40.57;26.39;97452.94;5099872;27;20416;-83
2022/07/16 08:42:25;;;;;;;5.75;3.70;;;;;;;42.04;25.41;97444.16;5116853;27;20078;-83
2022/07/16 08:44:51;;;;;;;11.48;4.72;;;;;;;43.46;24.65;97459.06;5099355;27;20130;-83
2022/07/16 08:47:17;;;;;;;8.30;4.97;;;;;;;43.38;23.98;97454.97;5098917;27;20477;-82
2022/07/16 08:49:44;;;;;;;11.23;3.92;;;;;;;42.91;23.93;97441.06;5099833;27;20023;-90
2022/07/16 08:52:10;;;;;;;18.80;7.85;;;;;;;43.34;24.05;97451.06;5117702;27;20019;-88
2022/07/16 08:54:36;;;;;;;9.05;6.00;;;;;;;40.80;26.00;97444.91;5101398;27;20486;-90
2022/07/16 08:57:02;;;;;;;7.80;4.10;;;;;;;40.76;26.23;97452.25;5101178;27;20030;-88
2022/07/16 08:59:28;;;;;;;11.45;4.22;;;;;;;41.78;25.04;97439.94;5117449;27;20543;-89
2022/07/16 09:01:54;;;;;;;12.07;6.40;;;;;;;40.41;25.96;97442.88;5118345;27;20027;-90
2022/07/16 09:04:20;;;;;;;5.47;3.85;;;;;;;40.23;26.77;97445.50;5099885;27;20426;-90
2022/07/16 09:06:46;;;;;;;8.13;4.93;;;;;;;42.03;25.31;97438.81;5099738;27;20035;-89
2022/07/16 09:09:12;;;;;;;32.08;8.73;;;;;;;41.97;24.68;97432.41;5100104;27;20027;-88
2022/07/16 09:11:38;;;;;;;9.07;4.63;;;;;;;43.18;24.25;97452.47;5117650;27;20087;-89
2022/07/16 09:14:15;;;;;;;5.65;3.20;;;;;;;43.77;23.97;97443.31;5099607;27;20038;-89
2022/07/16 09:16:50;;;;;;;8.70;4.22;;;;;;;44.14;23.50;97448.78;5099280;27;20031;-87
2022/07/16 09:19:18;;;;;;;17.95;4.43;;;;;;;44.51;23.17;97450.56;5099116;27;20031;-88
2022/07/16 09:22:08;;;;;;;4.90;3.88;;;;;;;43.29;23.99;97442.69;5099153;27;20463;-89
2022/07/16 09:24:44;;;;;;;8.48;4.05;;;;;;;44.05;23.30;97442.19;5099369;27;20455;-90
2022/07/16 09:27:14;;;;;;;4.55;3.38;;;;;;;43.26;23.67;97436.81;5113477;27;20521;-88
2022/07/16 09:29:48;;;;;;;7.20;3.70;;;;;;;43.34;23.50;97439.81;5099680;27;20065;-89
2022/07/16 09:32:27;;;;;;;3.15;2.85;;;;;;;44.22;22.46;97433.97;5098839;27;20440;-89
2022/07/16 09:35:15;;;;;;;7.00;3.88;;;;;;;43.90;22.77;97442.47;5098638;27;20084;-88
2022/07/16 09:37:52;;;;;;;10.38;4.70;;;;;;;43.09;23.49;97426.97;5095065;27;20027;-84
2022/07/16 09:40:45;;;;;;;16.48;4.85;;;;;;;41.97;24.79;97442.81;5098062;27;20027;-85
2022/07/16 09:43:11;;;;;;;4.72;3.42;;;;;;;42.18;26.90;97438.66;5094274;27;20055;-84
2022/07/16 09:45:39;;;;;;;7.38;4.00;;;;;;;42.90;26.51;97434.56;5133126;27;20111;-87
2022/07/16 09:48:29;;;;;;;5.75;3.58;;;;;;;44.55;24.27;97445.97;5114722;27;20023;-86
2022/07/16 09:50:58;;;;;;;5.45;2.50;;;;;;;45.01;22.98;97434.47;5131585;27;20072;-83
2022/07/16 09:53:25;;;;;;;8.07;3.60;;;;;;;45.77;24.14;97441.06;5098880;27;20031;-84
2022/07/16 09:56:02;;;;;;;5.72;3.05;;;;;;;45.82;22.43;97428.75;5099390;27;20076;-88
2022/07/16 09:58:27;;;;;;;8.02;4.88;;;;;;;46.75;23.06;97436.78;5116129;27;20420;-88
2022/07/16 10:00:54;;;;;;;12.32;3.70;;;;;;;46.50;20.72;97422.56;5117719;27;20041;-88
2022/07/16 10:03:20;;;;;;;8.60;3.78;;;;;;;46.15;22.52;97427.25;5100564;27;20031;-88
2022/07/16 10:05:46;;;;;;;8.13;3.17;;;;;;;47.16;21.15;97425.03;5116024;27;20130;-86
2022/07/16 10:08:13;;;;;;;13.32;3.78;;;;;;;45.88;20.64;97408.47;5098263;27;20106;-88
2022/07/16 10:10:38;;;;;;;5.78;3.17;;;;;;;46.29;20.98;97397.69;5100366;27;20031;-88
2022/07/16 10:13:05;;;;;;;;;;;;;;;46.39;20.48;97415.53;5100754;27;20027;-90
2022/07/16 10:15:30;;;;;;;10.32;3.15;;;;;;;46.63;21.04;97411.13;5098358;27;19970;-85
2022/07/16 10:17:56;;;;;;;3.05;2.53;;;;;;;47.30;21.62;97422.00;5116298;27;20106;-85
2022/07/16 10:20:22;;;;;;;3.22;2.50;;;;;;;46.62;20.39;97411.44;5098927;27;20035;-83
2022/07/16 10:22:49;;;;;;;6.55;3.10;;;;;;;46.71;21.21;97420.78;5115577;27;20023;-85
2022/07/16 10:25:16;;;;;;;3.28;2.58;;;;;;;47.14;19.25;97413.16;5115406;27;20122;-84
2022/07/16 10:27:42;;;;;;;3.92;2.80;;;;;;;46.28;20.37;97407.34;5098654;27;20027;-86
2022/07/16 10:30:16;;;;;;;6.30;3.20;;;;;;;47.47;19.67;97416.28;5099551;27;20034;-90
2022/07/16 10:33:16;;;;;;;2.97;2.78;;;;;;;46.95;20.08;97421.16;5099699;27;20031;-91
2022/07/16 10:35:49;;;;;;;3.13;2.83;;;;;;;47.22;19.52;97420.88;5133853;27;20123;-90
2022/07/16 10:38:17;;;;;;;5.13;3.15;;;;;;;46.83;20.63;97409.63;5098895;27;20027;-90
2022/07/16 10:40:44;;;;;;;6.13;2.65;;;;;;;46.23;20.05;97410.31;5133435;27;20023;-88
2022/07/16 10:43:11;;;;;;;4.03;2.70;;;;;;;45.36;20.59;97412.16;5097979;28;20043;-89
2022/07/16 10:46:03;;;;;;;8.10;2.72;;;;;;;45.28;20.71;97411.75;5115647;27;20035;-87
2022/07/16 10:48:30;;;;;;;3.45;2.65;;;;;;;45.58;20.71;97393.19;5098061;28;20435;-86
2022/07/16 10:51:15;;;;;;;5.40;2.80;;;;;;;41.84;24.43;97405.00;5116198;28;20030;-89
2022/07/16 10:53:56;;;;;;;7.85;2.60;;;;;;;41.49;24.54;97408.19;5126538;28;20057;-85
2022/07/16 10:56:48;;;;;;;8.88;3.00;;;;;;;42.66;23.41;97405.66;5112812;28;20034;-90
2022/07/16 10:59:16;;;;;;;2.97;2.60;;;;;;;40.69;24.76;97398.41;5097581;28;20053;-92
2022/07/16 11:01:44;;;;;;;3.90;2.72;;;;;;;40.11;25.33;97403.78;5097535;28;20474;-87
2022/07/16 11:04:10;;;;;;;10.10;3.22;;;;;;;40.98;27.33;97419.81;5096525;28;20114;-84
2022/07/16 11:06:37;;;;;;;4.75;3.70;;;;;;;42.43;27.76;97426.22;5097096;27;20045;-87
2022/07/16 11:09:06;;;;;;;3.67;2.53;;;;;;;43.40;26.01;97416.06;5096671;28;20542;-86
2022/07/16 11:11:39;;;;;;;9.50;3.03;;;;;;;44.09;24.51;97423.47;5097489;28;20099;-84
2022/07/16 11:14:06;;;;;;;3.15;2.85;;;;;;;44.28;22.73;97420.56;5097382;28;20030;-88
2022/07/16 11:16:33;;;;;;;5.53;2.47;;;;;;;43.24;22.96;97410.94;5097755;28;20035;-89
2022/07/16 11:19:00;;;;;;;5.95;2.47;;;;;;;41.40;23.69;97401.53;5113651;28;20026;-86
2022/07/16 11:21:26;;;;;;;2.58;2.22;;;;;;;40.92;24.04;97414.50;5096974;28;20063;-90
2022/07/16 11:23:58;;;;;;;4.35;2.70;;;;;;;41.19;25.23;97414.91;5096936;28;20023;-88
2022/07/16 11:26:25;;;;;;;9.63;2.50;;;;;;;40.77;24.85;97407.06;5096503;28;20026;-85
2022/07/16 11:28:58;;;;;;;14.05;4.38;;;;;;;40.93;25.20;97419.88;5096142;28;20064;-83
2022/07/16 11:31:35;;;;;;;9.05;3.15;;;;;;;42.20;24.53;97415.84;5096104;28;20090;-84
2022/07/16 11:34:06;;;;;;;5.07;2.47;;;;;;;41.98;27.62;97427.63;5095606;28;20064;-85
2022/07/16 11:36:34;;;;;;;4.82;2.50;;;;;;;41.88;25.20;97414.53;5096041;28;20106;-86
2022/07/16 11:39:11;;;;;;;5.30;3.10;;;;;;;42.28;25.27;97432.06;5096290;28;20129;-85